createdAt,value
2018-07-15T00:01:33.109Z,7.70
2018-07-15T00:04:00.638Z,7.77
2018-07-15T00:06:27.927Z,8.73
2018-07-15T00:08:55.282Z,8.90
2018-07-15T00:11:22.642Z,8.50
2018-07-15T00:13:49.932Z,9.27
2018-07-15T00:16:17.248Z,9.00
2018-07-15T00:18:44.593Z,9.70
2018-07-15T00:21:11.902Z,9.97
2018-07-15T00:23:39.457Z,9.07
2018-07-15T00:26:06.758Z,9.10
2018-07-15T00:28:34.100Z,8.77
2018-07-15T00:31:01.703Z,8.90
2018-07-15T00:33:29.005Z,9.23
2018-07-15T00:35:56.357Z,8.93
2018-07-15T00:38:23.742Z,9.30
2018-07-15T00:40:51.057Z,8.87
2018-07-15T00:43:18.358Z,8.10
2018-07-15T00:45:45.655Z,8.10
2018-07-15T00:48:12.993Z,8.47
2018-07-15T00:50:40.323Z,8.03
2018-07-15T00:53:07.655Z,8.10
2018-07-15T00:55:34.981Z,7.80
2018-07-15T00:58:02.284Z,6.60
2018-07-15T01:00:34.822Z,7.30
2018-07-15T01:03:02.077Z,7.60
2018-07-15T01:05:29.381Z,7.07
2018-07-15T01:07:56.680Z,7.20
2018-07-15T01:10:24.029Z,7.07
2018-07-15T01:12:51.364Z,8.37
2018-07-15T01:15:18.640Z,6.90
2018-07-15T01:17:45.950Z,6.83
2018-07-15T01:20:13.276Z,7.27
2018-07-15T01:22:40.621Z,6.93
2018-07-15T01:25:07.941Z,7.33
2018-07-15T01:27:35.230Z,7.40
2018-07-15T01:30:03.094Z,6.83
2018-07-15T01:32:30.611Z,6.70
2018-07-15T01:34:57.931Z,7.87
2018-07-15T01:37:25.292Z,7.63
2018-07-15T01:39:52.648Z,7.53
2018-07-15T01:42:19.971Z,7.20
2018-07-15T01:44:47.338Z,7.33
2018-07-15T01:47:14.709Z,6.63
2018-07-15T01:49:42.013Z,7.37
2018-07-15T01:52:09.536Z,6.40
2018-07-15T01:54:36.915Z,7.20
2018-07-15T01:57:04.289Z,7.83
2018-07-15T01:59:31.691Z,7.03
2018-07-15T02:01:59.001Z,7.60
2018-07-15T02:04:26.360Z,8.17
2018-07-15T02:06:53.725Z,7.80
2018-07-15T02:09:21.007Z,7.43
2018-07-15T02:11:48.360Z,8.63
2018-07-15T02:14:15.680Z,8.03
2018-07-15T02:16:43.065Z,8.17
2018-07-15T02:19:10.375Z,7.70
2018-07-15T02:21:37.876Z,7.90
2018-07-15T02:24:05.370Z,7.83
2018-07-15T02:26:32.960Z,7.83
2018-07-15T02:29:00.274Z,7.87
2018-07-15T02:31:27.571Z,7.60
2018-07-15T02:33:54.897Z,7.97
2018-07-15T02:36:22.278Z,7.90
2018-07-15T02:38:49.601Z,7.90
2018-07-15T02:41:17.013Z,8.10
2018-07-15T02:43:44.332Z,8.10
2018-07-15T02:46:11.620Z,8.63
2018-07-15T02:48:38.929Z,8.60
2018-07-15T02:51:06.306Z,8.30
2018-07-15T02:53:33.627Z,8.57
2018-07-15T02:56:00.959Z,9.10
2018-07-15T02:58:28.267Z,9.30
2018-07-15T03:00:55.572Z,7.80
2018-07-15T03:03:22.879Z,8.47
2018-07-15T03:05:50.189Z,8.87
2018-07-15T03:08:17.513Z,9.37
2018-07-15T03:10:44.808Z,8.63
2018-07-15T03:13:12.081Z,8.30
2018-07-15T03:15:39.395Z,9.27
2018-07-15T03:18:06.731Z,9.23
2018-07-15T03:20:34.013Z,9.47
2018-07-15T03:23:01.325Z,9.87
2018-07-15T03:25:28.589Z,9.70
2018-07-15T03:27:55.917Z,9.10
2018-07-15T03:30:23.243Z,10.17
2018-07-15T03:32:50.552Z,10.70
2018-07-15T03:35:17.852Z,9.90
2018-07-15T03:37:45.141Z,9.60
2018-07-15T03:40:12.548Z,10.60
2018-07-15T03:42:39.840Z,9.57
2018-07-15T03:45:07.151Z,9.97
2018-07-15T03:47:34.648Z,10.40
2018-07-15T03:50:01.963Z,9.77
2018-07-15T03:52:29.308Z,8.97
2018-07-15T03:54:56.602Z,9.27
2018-07-15T03:57:23.911Z,10.13
2018-07-15T03:59:51.252Z,9.63
2018-07-15T04:02:18.530Z,9.40
2018-07-15T04:04:45.916Z,9.70
2018-07-15T04:07:13.233Z,9.07
2018-07-15T04:09:40.514Z,9.97
2018-07-15T04:12:07.846Z,9.33
2018-07-15T04:14:35.272Z,9.00
2018-07-15T04:17:02.613Z,10.00
2018-07-15T04:19:29.943Z,10.27
2018-07-15T04:21:57.405Z,9.60
2018-07-15T04:24:24.732Z,10.07
2018-07-15T04:26:52.011Z,9.47
2018-07-15T04:29:19.391Z,8.97
2018-07-15T04:31:46.682Z,8.83
2018-07-15T04:34:14.005Z,8.50
2018-07-15T04:36:41.334Z,9.00
2018-07-15T04:39:09.476Z,9.67
2018-07-15T04:41:36.842Z,10.47
2018-07-15T04:44:04.341Z,8.60
2018-07-15T04:46:31.708Z,8.33
2018-07-15T04:49:00.425Z,9.57
2018-07-15T04:51:27.779Z,9.00
2018-07-15T04:53:55.069Z,9.03
2018-07-15T04:56:24.364Z,10.00
2018-07-15T04:58:51.640Z,9.77
2018-07-15T05:01:18.970Z,9.10
2018-07-15T05:03:46.266Z,9.57
2018-07-15T05:06:14.790Z,9.57
2018-07-15T05:08:42.065Z,9.80
2018-07-15T05:11:09.650Z,8.97
2018-07-15T05:13:36.939Z,10.30
2018-07-15T05:16:04.293Z,8.47
2018-07-15T05:18:31.654Z,9.87
2018-07-15T05:20:58.932Z,10.90
2018-07-15T05:23:26.253Z,9.27
2018-07-15T05:25:55.565Z,9.10
2018-07-15T05:28:22.810Z,9.00
2018-07-15T05:30:50.157Z,10.60
2018-07-15T05:33:17.498Z,10.30
2018-07-15T05:35:44.812Z,9.37
2018-07-15T05:38:12.397Z,8.60
2018-07-15T05:40:39.754Z,10.73
2018-07-15T05:43:07.257Z,10.37
2018-07-15T05:45:34.730Z,8.70
2018-07-15T05:48:02.127Z,9.10
2018-07-15T05:50:29.453Z,10.23
2018-07-15T05:52:56.760Z,8.80
2018-07-15T05:55:24.019Z,9.30
2018-07-15T05:57:51.403Z,9.00
2018-07-15T06:00:18.639Z,9.93
2018-07-15T06:02:47.063Z,10.60
2018-07-15T06:05:14.393Z,10.03
2018-07-15T06:07:41.714Z,11.00
2018-07-15T06:10:09.039Z,8.47
2018-07-15T06:12:36.403Z,9.47
2018-07-15T06:15:04.285Z,9.40
2018-07-15T06:17:31.597Z,10.80
2018-07-15T06:19:58.920Z,8.83
2018-07-15T06:22:26.235Z,10.77
2018-07-15T06:24:53.557Z,8.63
2018-07-15T06:27:20.909Z,10.50
2018-07-15T06:29:48.279Z,9.77
2018-07-15T06:32:15.638Z,9.43
2018-07-15T06:34:43.051Z,10.30
2018-07-15T06:37:10.380Z,8.97
2018-07-15T06:39:37.731Z,10.97
2018-07-15T06:42:05.226Z,9.97
2018-07-15T06:44:32.558Z,11.77
2018-07-15T06:46:59.938Z,9.50
2018-07-15T06:49:27.253Z,10.17
2018-07-15T06:51:54.729Z,11.83
2018-07-15T06:54:22.065Z,11.87
2018-07-15T06:56:49.844Z,10.53
2018-07-15T06:59:18.457Z,11.20
2018-07-15T07:01:45.820Z,10.37
2018-07-15T07:04:13.144Z,10.40
2018-07-15T07:06:40.495Z,11.40
2018-07-15T07:09:08.266Z,11.10
2018-07-15T07:11:36.478Z,10.47
2018-07-15T07:14:04.183Z,11.10
2018-07-15T07:16:31.490Z,11.63
2018-07-15T07:18:58.843Z,12.10
2018-07-15T07:21:26.232Z,10.87
2018-07-15T07:23:53.532Z,11.83
2018-07-15T07:26:20.859Z,11.50
2018-07-15T07:28:48.330Z,11.53
2018-07-15T07:31:15.694Z,11.80
2018-07-15T07:33:43.879Z,11.33
2018-07-15T07:36:11.296Z,11.87
2018-07-15T07:38:38.592Z,11.40
2018-07-15T07:41:06.900Z,11.30
2018-07-15T07:43:34.195Z,11.97
2018-07-15T07:46:01.551Z,11.10
2018-07-15T07:48:28.877Z,11.10
2018-07-15T07:50:56.251Z,11.50
2018-07-15T07:53:23.816Z,10.10
2018-07-15T07:55:51.041Z,10.43
2018-07-15T07:58:18.413Z,10.93
2018-07-15T08:00:45.796Z,10.50
2018-07-15T08:03:13.241Z,9.20
2018-07-15T08:05:40.585Z,8.80
2018-07-15T08:08:09.903Z,9.10
2018-07-15T08:10:37.292Z,8.17
2018-07-15T08:13:04.601Z,9.50
2018-07-15T08:15:31.944Z,8.37
2018-07-15T08:18:01.977Z,10.80
2018-07-15T08:20:29.342Z,11.40
2018-07-15T08:22:56.638Z,11.20
2018-07-15T08:25:25.840Z,10.90
2018-07-15T08:27:54.170Z,11.40
2018-07-15T08:30:27.058Z,9.90
2018-07-15T08:32:56.266Z,11.47
2018-07-15T08:35:23.645Z,10.83
2018-07-15T08:37:51.045Z,10.00
2018-07-15T08:40:18.387Z,9.73
2018-07-15T08:42:45.751Z,10.20
2018-07-15T08:45:13.093Z,9.10
2018-07-15T08:47:40.556Z,10.97
2018-07-15T08:50:09.594Z,10.93
2018-07-15T08:52:37.003Z,9.73
2018-07-15T08:55:05.326Z,11.00
2018-07-15T08:57:33.204Z,10.80
2018-07-15T09:00:01.360Z,11.57
2018-07-15T09:02:28.804Z,10.30
2018-07-15T09:04:56.188Z,9.70
2018-07-15T09:07:24.257Z,11.07
2018-07-15T09:09:51.693Z,11.43
2018-07-15T09:12:19.182Z,11.10
2018-07-15T09:14:46.632Z,10.60
2018-07-15T09:17:15.325Z,11.90
2018-07-15T09:19:43.586Z,11.10
2018-07-15T09:22:12.276Z,9.70
2018-07-15T09:24:40.273Z,9.80
2018-07-15T09:27:08.528Z,9.97
2018-07-15T09:29:36.809Z,10.00
2018-07-15T09:32:04.723Z,8.83
2018-07-15T09:34:32.128Z,9.20
2018-07-15T09:36:59.434Z,9.97
2018-07-15T09:39:27.115Z,10.57
2018-07-15T09:41:54.659Z,9.57
2018-07-15T09:44:22.088Z,9.90
2018-07-15T09:46:49.493Z,9.20
2018-07-15T09:49:16.833Z,9.07
2018-07-15T09:51:44.255Z,9.83
2018-07-15T09:54:12.040Z,9.50
2018-07-15T09:56:39.541Z,9.50
2018-07-15T09:59:06.942Z,9.10
2018-07-15T10:01:36.168Z,9.20
2018-07-15T10:04:03.619Z,9.30
2018-07-15T10:06:32.033Z,8.10
2018-07-15T10:08:59.486Z,8.60
2018-07-15T10:11:30.479Z,8.20
2018-07-15T10:13:58.242Z,7.90
2018-07-15T10:16:26.744Z,6.90
2018-07-15T10:18:54.089Z,8.33
2018-07-15T10:21:22.519Z,7.17
2018-07-15T10:23:49.908Z,7.27
2018-07-15T10:26:17.298Z,7.37
2018-07-15T10:28:44.746Z,7.40
2018-07-15T10:31:12.132Z,8.20
2018-07-15T10:33:39.762Z,7.50
2018-07-15T10:36:07.211Z,7.07
2018-07-15T10:38:34.556Z,6.83
2018-07-15T10:41:03.229Z,6.63
2018-07-15T10:43:30.577Z,7.43
2018-07-15T10:45:57.946Z,7.63
2018-07-15T10:48:25.592Z,7.57
2018-07-15T10:50:52.952Z,8.10
2018-07-15T10:53:20.306Z,7.37
2018-07-15T10:55:49.515Z,7.10
2018-07-15T10:58:16.842Z,6.17
2018-07-15T11:00:44.141Z,5.80
2018-07-15T11:03:11.521Z,5.73
2018-07-15T11:05:38.943Z,6.27
2018-07-15T11:08:06.272Z,5.80
2018-07-15T11:10:33.623Z,5.77
2018-07-15T11:13:01.145Z,6.43
2018-07-15T11:15:28.569Z,6.47
2018-07-15T11:17:55.913Z,8.27
2018-07-15T11:20:23.364Z,8.60
2018-07-15T11:22:51.839Z,8.53
2018-07-15T11:25:19.665Z,8.77
2018-07-15T11:27:47.122Z,8.30
2018-07-15T11:30:14.640Z,8.33
2018-07-15T11:32:42.003Z,7.90
2018-07-15T11:35:09.360Z,7.67
2018-07-15T11:37:36.804Z,8.00
2018-07-15T11:40:04.324Z,7.50
2018-07-15T11:42:31.743Z,8.30
2018-07-15T11:44:59.150Z,8.17
2018-07-15T11:47:26.626Z,8.10
2018-07-15T11:49:54.001Z,8.27
2018-07-15T11:52:21.450Z,7.93
2018-07-15T11:54:48.898Z,8.03
2018-07-15T11:57:16.334Z,8.20
2018-07-15T11:59:44.007Z,8.30
2018-07-15T12:02:11.464Z,7.73
2018-07-15T12:04:39.245Z,7.93
2018-07-15T12:07:06.992Z,8.17
2018-07-15T12:09:35.364Z,9.07
2018-07-15T12:12:02.771Z,7.90
2018-07-15T12:14:30.273Z,7.20
2018-07-15T12:17:01.618Z,7.47
2018-07-15T12:19:29.115Z,7.83
2018-07-15T12:21:56.452Z,7.40
2018-07-15T12:24:23.813Z,7.27
2018-07-15T12:26:51.398Z,7.37
2018-07-15T12:29:18.751Z,7.30
2018-07-15T12:31:47.024Z,7.20
2018-07-15T12:34:14.491Z,6.60
2018-07-15T12:36:43.960Z,7.47
2018-07-15T12:39:11.524Z,7.43
2018-07-15T12:41:39.004Z,6.93
2018-07-15T12:44:10.273Z,6.60
2018-07-15T12:46:37.743Z,7.33
2018-07-15T12:49:05.818Z,7.20
2018-07-15T12:51:34.038Z,7.10
2018-07-15T12:54:01.929Z,7.40
2018-07-15T12:56:29.451Z,6.53
2018-07-15T12:58:57.010Z,6.57
2018-07-15T13:01:24.614Z,6.33
2018-07-15T13:03:52.491Z,6.27
2018-07-15T13:06:19.911Z,6.70
2018-07-15T13:08:47.474Z,6.33
2018-07-15T13:11:16.926Z,5.87
2018-07-15T13:13:44.481Z,5.57
2018-07-15T13:16:12.001Z,6.57
2018-07-15T13:18:39.399Z,6.20
2018-07-15T13:21:06.866Z,6.20
2018-07-15T13:23:34.244Z,6.30
2018-07-15T13:26:01.692Z,5.30
2018-07-15T13:28:29.142Z,5.67
2018-07-15T13:30:56.551Z,6.10
2018-07-15T13:33:23.986Z,5.53
2018-07-15T13:35:51.323Z,6.10
2018-07-15T13:38:18.796Z,6.03
2018-07-15T13:40:46.404Z,6.00
2018-07-15T13:43:13.826Z,5.63
2018-07-15T13:45:41.244Z,4.93
2018-07-15T13:48:10.353Z,5.40
2018-07-15T13:50:38.340Z,5.30
2018-07-15T13:53:07.157Z,5.40
2018-07-15T13:55:36.086Z,5.17
2018-07-15T13:58:03.681Z,5.47
2018-07-15T14:00:31.173Z,5.10
2018-07-15T14:02:58.510Z,6.10
2018-07-15T14:05:27.527Z,5.43
2018-07-15T14:07:55.060Z,5.23
2018-07-15T14:10:22.545Z,5.73
2018-07-15T14:12:49.913Z,5.17
2018-07-15T14:15:22.197Z,5.23
2018-07-15T14:17:49.514Z,5.50
2018-07-15T14:20:16.902Z,7.10
2018-07-15T14:22:44.288Z,7.23
2018-07-15T14:25:11.612Z,6.40
2018-07-15T14:27:39.003Z,7.47
2018-07-15T14:30:07.717Z,6.50
2018-07-15T14:32:38.616Z,7.27
2018-07-15T14:35:11.561Z,8.40
2018-07-15T14:37:39.271Z,7.10
2018-07-15T14:40:06.694Z,6.77
2018-07-15T14:42:34.047Z,6.90
2018-07-15T14:45:03.343Z,7.50
2018-07-15T14:47:30.668Z,6.10
2018-07-15T14:49:59.931Z,6.20
2018-07-15T14:52:27.442Z,6.07
2018-07-15T14:54:54.806Z,5.90
2018-07-15T14:57:22.220Z,5.97
2018-07-15T14:59:49.652Z,5.83
2018-07-15T15:02:17.188Z,5.90
2018-07-15T15:04:44.706Z,6.00
2018-07-15T15:07:14.226Z,6.50
2018-07-15T15:09:41.574Z,6.10
2018-07-15T15:12:09.286Z,7.03
2018-07-15T15:14:36.639Z,8.10
2018-07-15T15:17:04.198Z,8.30
2018-07-15T15:19:33.687Z,7.77
2018-07-15T15:22:01.184Z,8.47
2018-07-15T15:24:28.945Z,8.27
2018-07-15T15:26:56.461Z,8.20
2018-07-15T15:29:24.160Z,7.90
2018-07-15T15:31:51.478Z,7.73
2018-07-15T15:34:18.855Z,7.40
2018-07-15T15:36:46.570Z,8.30
2018-07-15T15:39:14.607Z,8.33
2018-07-15T15:41:42.976Z,8.93
2018-07-15T15:44:10.300Z,9.47
2018-07-15T15:46:37.617Z,8.03
2018-07-15T15:49:05.055Z,8.50
2018-07-15T15:51:33.220Z,7.90
2018-07-15T15:54:01.103Z,8.57
2018-07-15T15:56:29.655Z,8.27
2018-07-15T15:58:57.095Z,9.00
2018-07-15T16:01:25.293Z,8.30
2018-07-15T16:03:52.990Z,7.20
2018-07-15T16:06:21.217Z,7.80
2018-07-15T16:08:48.900Z,6.60
2018-07-15T16:11:16.576Z,7.30
2018-07-15T16:13:44.588Z,7.47
2018-07-15T16:16:12.093Z,6.83
2018-07-15T16:18:39.728Z,6.00
2018-07-15T16:21:07.065Z,5.43
2018-07-15T16:23:34.741Z,5.27
2018-07-15T16:26:02.115Z,4.57
2018-07-15T16:28:30.781Z,4.93
2018-07-15T16:30:58.095Z,5.10
2018-07-15T16:33:25.727Z,5.03
2018-07-15T16:35:53.147Z,4.80
2018-07-15T16:38:20.454Z,4.57
2018-07-15T16:40:47.875Z,4.13
2018-07-15T16:43:15.422Z,5.00
2018-07-15T16:45:43.005Z,4.50
2018-07-15T16:48:10.362Z,4.37
2018-07-15T16:50:37.931Z,4.40
2018-07-15T16:53:05.449Z,4.20
2018-07-15T16:55:32.973Z,4.17
2018-07-15T16:58:01.020Z,5.00
2018-07-15T17:00:28.653Z,5.00
2018-07-15T17:02:55.978Z,4.10
2018-07-15T17:05:23.342Z,4.83
2018-07-15T17:07:51.638Z,4.60
2018-07-15T17:10:19.304Z,6.03
2018-07-15T17:12:47.169Z,5.43
2018-07-15T17:15:15.125Z,5.50
2018-07-15T17:17:42.560Z,6.23
2018-07-15T17:20:10.037Z,5.20
2018-07-15T17:22:37.487Z,5.83
2018-07-15T17:25:05.144Z,6.03
2018-07-15T17:27:32.563Z,4.93
2018-07-15T17:29:59.854Z,4.80
2018-07-15T17:32:28.190Z,5.10
2018-07-15T17:34:56.387Z,4.90
2018-07-15T17:37:23.762Z,6.30
2018-07-15T17:39:51.159Z,5.57
2018-07-15T17:42:19.390Z,4.70
2018-07-15T17:44:46.964Z,4.80
2018-07-15T17:47:14.297Z,5.80
2018-07-15T17:49:41.629Z,5.90
2018-07-15T17:52:09.038Z,5.90
2018-07-15T17:54:36.633Z,5.67
2018-07-15T17:57:04.292Z,6.17
2018-07-15T17:59:31.672Z,5.80
2018-07-15T18:01:59.674Z,5.67
2018-07-15T18:04:27.041Z,6.50
2018-07-15T18:06:54.349Z,7.87
2018-07-15T18:09:22.681Z,6.97
2018-07-15T18:11:51.046Z,7.07
2018-07-15T18:14:18.466Z,7.50
2018-07-15T18:16:46.137Z,6.43
2018-07-15T18:19:13.488Z,6.43
2018-07-15T18:21:41.154Z,5.67
2018-07-15T18:24:08.567Z,5.30
2018-07-15T18:26:36.271Z,5.10
2018-07-15T18:29:03.769Z,5.60
2018-07-15T18:31:31.163Z,6.33
2018-07-15T18:33:58.969Z,5.33
2018-07-15T18:36:26.629Z,5.83
2018-07-15T18:38:54.253Z,6.50
2018-07-15T18:41:21.699Z,6.30
2018-07-15T18:43:49.940Z,6.27
2018-07-15T18:46:17.592Z,6.90
2018-07-15T18:48:45.313Z,6.20
2018-07-15T18:51:13.265Z,6.00
2018-07-15T18:53:41.595Z,6.10
2018-07-15T18:56:08.974Z,6.13
2018-07-15T18:58:36.377Z,6.70
2018-07-15T19:01:03.949Z,5.80
2018-07-15T19:03:31.321Z,6.40
2018-07-15T19:05:58.778Z,6.53
2018-07-15T19:08:26.282Z,6.53
2018-07-15T19:10:53.636Z,6.33
2018-07-15T19:13:20.980Z,6.00
2018-07-15T19:15:48.326Z,6.30
2018-07-15T19:18:15.719Z,5.47
2018-07-15T19:20:43.062Z,5.80
2018-07-15T19:23:10.472Z,6.20
2018-07-15T19:25:38.053Z,5.90
2018-07-15T19:28:05.520Z,5.63
2018-07-15T19:30:32.901Z,5.27
2018-07-15T19:33:01.164Z,5.83
2018-07-15T19:35:28.472Z,5.70
2018-07-15T19:37:56.017Z,5.90
2018-07-15T19:40:23.911Z,5.97
2018-07-15T19:42:51.584Z,6.60
2018-07-15T19:45:18.957Z,5.27
2018-07-15T19:47:46.427Z,5.23
2018-07-15T19:50:13.823Z,5.40
2018-07-15T19:52:41.145Z,5.73
2018-07-15T19:55:08.566Z,6.30
2018-07-15T19:57:36.252Z,5.97
2018-07-15T20:00:03.767Z,5.73
2018-07-15T20:02:31.137Z,4.63
2018-07-15T20:04:58.523Z,5.10
2018-07-15T20:07:25.992Z,5.20
2018-07-15T20:09:53.541Z,5.80
2018-07-15T20:12:21.272Z,5.80
2018-07-15T20:14:48.907Z,5.60
2018-07-15T20:17:16.242Z,6.00
2018-07-15T20:19:43.858Z,7.00
2018-07-15T20:22:11.321Z,6.10
2018-07-15T20:24:39.351Z,5.70
2018-07-15T20:27:06.900Z,6.40
2018-07-15T20:29:34.473Z,5.70
2018-07-15T20:32:01.811Z,5.70
2018-07-15T20:34:29.237Z,5.70
2018-07-15T20:36:58.190Z,6.03
2018-07-15T20:39:25.571Z,5.90
2018-07-15T20:41:53.089Z,5.50
2018-07-15T20:44:20.485Z,5.80
2018-07-15T20:46:47.824Z,5.63
2018-07-15T20:49:15.174Z,5.87
2018-07-15T20:51:42.552Z,5.47
2018-07-15T20:54:10.165Z,5.40
2018-07-15T20:56:38.175Z,5.17
2018-07-15T20:59:05.506Z,6.07
2018-07-15T21:01:33.426Z,5.80
2018-07-15T21:04:02.981Z,5.90
2018-07-15T21:06:30.793Z,5.90
2018-07-15T21:08:58.315Z,5.70
2018-07-15T21:11:25.659Z,5.63
2018-07-15T21:13:53.483Z,5.93
2018-07-15T21:16:20.825Z,6.60
2018-07-15T21:18:48.218Z,7.00
2018-07-15T21:21:15.556Z,6.60
2018-07-15T21:23:43.245Z,5.70
2018-07-15T21:26:10.540Z,5.37
2018-07-15T21:28:37.903Z,6.37
2018-07-15T21:31:05.423Z,5.80
2018-07-15T21:33:32.737Z,6.20
2018-07-15T21:36:00.093Z,6.30
2018-07-15T21:38:27.416Z,6.70
2018-07-15T21:40:54.687Z,6.80
2018-07-15T21:43:22.039Z,6.73
2018-07-15T21:45:49.432Z,5.40
2018-07-15T21:48:16.826Z,6.80
2018-07-15T21:50:44.149Z,6.80
2018-07-15T21:53:11.494Z,6.63
2018-07-15T21:55:38.848Z,7.13
2018-07-15T21:58:06.187Z,6.87
2018-07-15T22:00:33.558Z,6.67
2018-07-15T22:03:01.139Z,6.30
2018-07-15T22:05:28.367Z,6.67
2018-07-15T22:08:01.150Z,5.67
2018-07-15T22:10:30.933Z,6.60
2018-07-15T22:12:58.444Z,6.40
2018-07-15T22:15:25.846Z,6.30
2018-07-15T22:17:53.300Z,7.20
2018-07-15T22:20:20.686Z,7.23
2018-07-15T22:22:48.802Z,7.00
2018-07-15T22:25:16.207Z,6.87
2018-07-15T22:27:43.571Z,7.23
2018-07-15T22:30:10.965Z,7.00
2018-07-15T22:32:38.500Z,6.77
2018-07-15T22:35:05.905Z,6.77
2018-07-15T22:37:33.276Z,6.63
2018-07-15T22:40:00.840Z,6.70
2018-07-15T22:42:28.317Z,5.60
2018-07-15T22:44:55.697Z,6.37
2018-07-15T22:47:23.165Z,7.27
2018-07-15T22:49:50.528Z,6.30
2018-07-15T22:52:17.870Z,5.80
2018-07-15T22:54:45.302Z,6.87
2018-07-15T22:57:12.952Z,7.23
2018-07-15T22:59:40.402Z,5.20
2018-07-15T23:02:07.902Z,5.90
2018-07-15T23:04:40.913Z,6.33
2018-07-15T23:07:08.364Z,6.00
2018-07-15T23:09:35.768Z,6.40
2018-07-15T23:12:03.956Z,6.77
2018-07-15T23:14:31.659Z,6.17
2018-07-15T23:16:59.178Z,6.00
2018-07-15T23:19:26.683Z,6.63
2018-07-15T23:21:54.041Z,6.83
2018-07-15T23:24:21.539Z,7.10
2018-07-15T23:26:48.915Z,7.07
2018-07-15T23:29:16.304Z,7.30
2018-07-15T23:31:44.105Z,6.80
2018-07-15T23:34:11.740Z,7.37
2018-07-15T23:36:39.171Z,6.93
2018-07-15T23:39:06.951Z,5.97
2018-07-15T23:41:35.264Z,6.33
2018-07-15T23:44:02.644Z,5.87
2018-07-15T23:46:30.064Z,6.83
2018-07-15T23:48:57.468Z,6.90
2018-07-15T23:51:24.790Z,6.30
2018-07-15T23:53:52.145Z,6.33
2018-07-15T23:56:19.498Z,6.00
2018-07-15T23:58:46.841Z,7.20
